Time;durP1;ratioP1;P1;durP2;ratioP2;P2;SDS_P1;SDS_P2;PMS_P1;PMS_P2;Temp;Humidity;BMP_temperature;BMP_pressure;BME280_temperature;BME280_humidity;BME280_pressure;Samples;Min_cycle;Max_cycle;Signal;HPM_P1;HPM_P2
2022/02/12 00:01:53;;;;;;;;;;;;;;;16.88;49.25;103381.59;5007640;28;19914;-81
2022/02/12 00:04:18;;;;;;;;;;;;;;;16.87;49.15;103382.41;5010170;28;19918;-83
2022/02/12 00:06:44;;;;;;;;;;;;;;;16.86;49.07;103373.72;5014191;28;20001;-82
2022/02/12 00:09:09;;;;;;;;;;;;;;;16.86;49.05;103378.06;4994519;28;20276;-82
2022/02/12 00:11:34;;;;;;;;;;;;;;;16.86;49.02;103373.72;5014563;28;20288;-82
2022/02/12 00:13:59;;;;;;;;;;;;;;;16.87;49.11;103369.41;4999373;28;19920;-83
2022/02/12 00:16:24;;;;;;;;;;;;;;;16.85;49.14;103371.06;5011290;28;19922;-83
2022/02/12 00:18:50;;;;;;;;;;;;;;;16.83;49.01;103363.22;5007552;28;19918;-82
2022/02/12 00:21:15;;;;;;;;;;;;;;;16.85;48.87;103368.47;4988064;28;19929;-82
2022/02/12 00:23:40;;;;;;;;;;;;;;;16.85;48.97;103358.06;5006419;28;19914;-82
2022/02/12 00:26:08;;;;;;;;;;;;;;;16.82;48.97;103358.84;5010199;28;19981;-83
2022/02/12 00:28:34;;;;;;;;;;;;;;;16.83;49.02;103354.53;5013363;28;19953;-83
2022/02/12 00:30:59;;;;;;;;;;;;;;;16.84;49.06;103356.31;4994494;28;19917;-83
2022/02/12 00:33:24;;;;;;;;;;;;;;;16.81;48.74;103344.09;4995112;28;19913;-83
2022/02/12 00:35:49;;;;;;;;;;;;;;;16.82;48.80;103339.75;4994330;28;20431;-83
2022/02/12 00:38:15;;;;;;;;;;;;;;;16.82;48.78;103344.97;5011718;28;19909;-83
2022/02/12 00:40:40;;;;;;;;;;;;;;;16.83;48.76;103344.13;4994640;28;19936;-84
2022/02/12 00:43:05;;;;;;;;;;;;;;;16.82;49.03;103337.16;5011806;28;20403;-82
2022/02/12 00:45:31;;;;;;;;;;;;;;;16.82;48.62;103331.97;4994332;28;20358;-81
2022/02/12 00:47:56;;;;;;;;;;;;;;;16.81;48.68;103327.56;4994853;28;19918;-82
2022/02/12 00:50:21;;;;;;;;;;;;;;;16.79;48.61;103319.72;4995177;28;19964;-83
2022/02/12 00:52:46;;;;;;;;;;;;;;;16.80;48.62;103323.22;4995926;28;19920;-83
2022/02/12 00:55:12;;;;;;;;;;;;;;;16.79;48.77;103322.31;5010996;28;19918;-83
2022/02/12 00:57:37;;;;;;;;;;;;;;;16.80;48.64;103315.44;5011631;28;20032;-83
2022/02/12 01:00:03;;;;;;;;;;;;;;;16.80;48.63;103325.81;4996123;28;20008;-82
2022/02/12 01:02:29;;;;;;;;;;;;;;;16.79;48.76;103327.50;5010606;28;19959;-82
2022/02/12 01:04:54;;;;;;;;;;;;;;;16.78;48.76;103315.31;4993735;28;19921;-83
2022/02/12 01:07:19;;;;;;;;;;;;;;;16.77;48.66;103312.69;5011522;28;19944;-82
2022/02/12 01:09:44;;;;;;;;;;;;;;;16.76;48.44;103306.59;5012108;28;20004;-83
2022/02/12 01:12:10;;;;;;;;;;;;;;;16.77;48.49;103307.50;5010532;28;19898;-83
2022/02/12 01:14:35;;;;;;;;;;;;;;;16.76;48.60;103300.50;5014338;28;19956;-83
2022/02/12 01:17:00;;;;;;;;;;;;;;;16.76;48.78;103303.13;5014072;28;19981;-84
2022/02/12 01:19:27;;;;;;;;;;;;;;;16.76;48.64;103297.91;5013498;28;19913;-83
2022/02/12 01:21:52;;;;;;;;;;;;;;;16.77;48.58;103294.50;5008969;28;19972;-83
2022/02/12 01:24:17;;;;;;;;;;;;;;;16.76;48.56;103290.13;5010743;28;19914;-84
2022/02/12 01:26:43;;;;;;;;;;;;;;;16.75;48.60;103289.25;5009543;28;19998;-83
2022/02/12 01:29:09;;;;;;;;;;;;;;;16.74;48.60;103297.84;4995233;28;19917;-83
2022/02/12 01:31:34;;;;;;;;;;;;;;;16.74;48.42;103297.84;4993966;28;19920;-83
2022/02/12 01:33:59;;;;;;;;;;;;;;;16.75;48.58;103296.16;4994275;28;19918;-83
2022/02/12 01:36:25;;;;;;;;;;;;;;;16.74;48.13;103296.97;5009377;28;19918;-83
2022/02/12 01:38:50;;;;;;;;;;;;;;;16.73;48.50;103298.69;5011039;28;19917;-82
2022/02/12 01:41:15;;;;;;;;;;;;;;;16.73;48.46;103303.03;5009481;28;20012;-83
2022/02/12 01:43:41;;;;;;;;;;;;;;;16.72;48.39;103296.91;5010158;28;19921;-83
2022/02/12 01:46:06;;;;;;;;;;;;;;;16.72;48.59;103289.13;4992685;28;19917;-83
2022/02/12 01:48:32;;;;;;;;;;;;;;;16.72;48.46;103291.72;4996343;28;19913;-84
2022/02/12 01:50:57;;;;;;;;;;;;;;;16.72;48.38;103283.03;4997408;28;20016;-83
2022/02/12 01:53:23;;;;;;;;;;;;;;;16.72;48.17;103289.13;4997647;28;19924;-83
2022/02/12 01:55:48;;;;;;;;;;;;;;;16.71;48.29;103283.88;5014405;28;19914;-82
2022/02/12 01:58:15;;;;;;;;;;;;;;;16.71;48.39;103287.38;5012737;28;19921;-83
2022/02/12 02:00:40;;;;;;;;;;;;;;;16.71;48.36;103281.28;5012114;28;19948;-82
2022/02/12 02:03:06;;;;;;;;;;;;;;;16.70;48.24;103274.31;4994818;28;19917;-83
2022/02/12 02:05:31;;;;;;;;;;;;;;;16.70;48.27;103274.31;5011022;28;19910;-84
2022/02/12 02:07:56;;;;;;;;;;;;;;;16.70;48.15;103264.81;5010246;28;19917;-82
2022/02/12 02:10:22;;;;;;;;;;;;;;;16.69;48.42;103262.16;4994093;28;19920;-82
2022/02/12 02:12:47;;;;;;;;;;;;;;;16.67;48.16;103255.16;4993363;28;19914;-81
2022/02/12 02:15:12;;;;;;;;;;;;;;;16.69;47.98;103262.16;5007038;28;19918;-83
2022/02/12 02:17:37;;;;;;;;;;;;;;;16.68;48.02;103248.28;4989896;28;19918;-82
2022/02/12 02:20:04;;;;;;;;;;;;;;;16.69;48.26;103243.94;4989395;28;19965;-82
2022/02/12 02:22:31;;;;;;;;;;;;;;;16.67;48.46;103236.97;5007088;28;19917;-83
2022/02/12 02:24:57;;;;;;;;;;;;;;;16.67;48.37;103230.91;5007313;28;20335;-83
2022/02/12 02:27:28;;;;;;;;;;;;;;;16.67;48.09;103236.09;4989645;28;19914;-82
2022/02/12 02:29:53;;;;;;;;;;;;;;;16.65;48.20;103230.84;4989287;28;19925;-83
2022/02/12 02:32:19;;;;;;;;;;;;;;;16.65;47.95;103223.03;4988882;28;19918;-83
2022/02/12 02:34:48;;;;;;;;;;;;;;;16.65;47.93;103223.03;5008676;28;19933;-81
2022/02/12 02:37:14;;;;;;;;;;;;;;;16.65;48.02;103215.25;5006731;28;19936;-83
2022/02/12 02:39:39;;;;;;;;;;;;;;;16.64;47.95;103208.28;5006712;28;19910;-83
2022/02/12 02:42:04;;;;;;;;;;;;;;;16.64;48.11;103208.28;4990344;28;19925;-83
2022/02/12 02:44:29;;;;;;;;;;;;;;;16.64;48.06;103202.22;5006269;28;20387;-82
2022/02/12 02:46:55;;;;;;;;;;;;;;;16.63;47.96;103209.09;5005243;28;19910;-83
2022/02/12 02:49:20;;;;;;;;;;;;;;;16.64;48.06;103204.81;4988108;28;19925;-83
2022/02/12 02:57:13;;;;;;;;;;;;;;;16.62;48.04;103211.69;5006674;28;20332;-83
2022/02/12 02:59:39;;;;;;;;;;;;;;;16.62;48.13;103203.88;5005418;28;19910;-82
2022/02/12 03:02:05;;;;;;;;;;;;;;;16.61;48.12;103200.41;4990607;28;19945;-83
2022/02/12 03:04:31;;;;;;;;;;;;;;;16.61;47.97;103199.50;5006759;28;19913;-84
2022/02/12 03:06:56;;;;;;;;;;;;;;;16.62;47.98;103193.47;4991779;28;19918;-83
2022/02/12 03:09:22;;;;;;;;;;;;;;;16.61;47.96;103189.09;4990078;28;19914;-82
2022/02/12 03:11:48;;;;;;;;;;;;;;;16.60;48.09;103185.63;5005607;28;19993;-83
2022/02/12 03:14:13;;;;;;;;;;;;;;;16.61;47.95;103178.69;5006743;28;20291;-83
2022/02/12 03:16:38;;;;;;;;;;;;;;;16.61;48.13;103170.91;5005462;28;19929;-83
2022/02/12 03:19:03;;;;;;;;;;;;;;;16.60;47.99;103167.44;5007203;28;19910;-83
2022/02/12 03:21:29;;;;;;;;;;;;;;;16.60;48.12;103166.56;5005766;28;19940;-82
2022/02/12 03:23:54;;;;;;;;;;;;;;;16.59;47.78;103169.97;5006549;28;19940;-84
2022/02/12 03:26:19;;;;;;;;;;;;;;;16.58;47.96;103170.81;4991819;28;19918;-83
2022/02/12 03:28:44;;;;;;;;;;;;;;;16.57;47.84;103166.44;5006509;28;19913;-83
2022/02/12 03:31:10;;;;;;;;;;;;;;;16.56;48.08;103165.56;4989526;28;19960;-83
2022/02/12 03:33:36;;;;;;;;;;;;;;;16.57;47.91;103161.22;4990394;28;19914;-82
2022/02/12 03:36:02;;;;;;;;;;;;;;;16.56;47.89;103162.09;5006556;28;19914;-82
2022/02/12 03:38:28;;;;;;;;;;;;;;;16.56;47.85;103162.09;4988355;28;19948;-82
2022/02/12 03:40:57;;;;;;;;;;;;;;;16.55;47.87;103160.31;5006991;28;19909;-82
2022/02/12 03:43:23;;;;;;;;;;;;;;;16.55;47.76;103162.91;5001366;28;20378;-82
2022/02/12 03:45:48;;;;;;;;;;;;;;;16.55;47.94;103160.31;5000274;28;19944;-81
2022/02/12 03:48:13;;;;;;;;;;;;;;;16.55;48.05;103153.41;4999000;28;20376;-82
2022/02/12 03:50:39;;;;;;;;;;;;;;;16.55;47.88;103147.31;4998629;28;19936;-81
2022/02/12 03:53:05;;;;;;;;;;;;;;;16.54;47.63;103143.84;4988354;28;19920;-82
2022/02/12 03:55:36;;;;;;;;;;;;;;;16.52;47.85;103148.09;5013101;28;19953;-81
2022/02/12 03:58:02;;;;;;;;;;;;;;;16.53;47.92;103133.41;5005364;28;19948;-82
2022/02/12 04:00:27;;;;;;;;;;;;;;;16.52;47.60;103126.44;5004741;28;20000;-82
2022/02/12 04:02:52;;;;;;;;;;;;;;;16.52;47.84;103126.44;4989105;28;19921;-82
2022/02/12 04:05:17;;;;;;;;;;;;;;;16.51;47.83;103127.28;4998034;28;19989;-82
2022/02/12 04:07:43;;;;;;;;;;;;;;;16.51;47.81;103120.34;4989422;28;19914;-83
2022/02/12 04:10:09;;;;;;;;;;;;;;;16.51;47.78;103119.47;4981452;28;19953;-82
2022/02/12 04:12:35;;;;;;;;;;;;;;;16.51;47.59;103117.75;4997431;28;19921;-81
2022/02/12 04:15:01;;;;;;;;;;;;;;;16.51;47.70;103111.69;4999546;28;19921;-82
2022/02/12 04:17:26;;;;;;;;;;;;;;;16.50;47.65;103109.91;5003667;28;19916;-82
2022/02/12 04:19:51;;;;;;;;;;;;;;;16.50;47.74;103107.31;4989079;28;19953;-82
2022/02/12 04:22:17;;;;;;;;;;;;;;;16.50;47.94;103110.78;5002307;28;19924;-81
2022/02/12 04:24:42;;;;;;;;;;;;;;;16.49;47.62;103110.75;5001643;28;19960;-82
2022/02/12 04:27:08;;;;;;;;;;;;;;;16.49;47.93;103101.22;4985847;28;19920;-81
2022/02/12 04:29:33;;;;;;;;;;;;;;;16.49;47.62;103090.84;5003739;28;19914;-81
2022/02/12 04:31:58;;;;;;;;;;;;;;;16.47;47.60;103089.91;5007063;28;19921;-83
2022/02/12 04:34:23;;;;;;;;;;;;;;;16.46;47.64;103088.13;5004068;28;19921;-82
2022/02/12 04:36:50;;;;;;;;;;;;;;;16.48;47.58;103088.19;5006240;28;19964;-83
2022/02/12 04:39:16;;;;;;;;;;;;;;;16.48;47.62;103077.78;5004568;28;19933;-83
2022/02/12 04:41:41;;;;;;;;;;;;;;;16.46;47.43;103072.53;5004826;28;19932;-82
2022/02/12 04:44:06;;;;;;;;;;;;;;;16.45;47.52;103066.47;5004767;28;19910;-82
2022/02/12 04:46:32;;;;;;;;;;;;;;;16.45;47.72;103065.59;5004545;28;19941;-82
2022/02/12 04:48:57;;;;;;;;;;;;;;;16.46;47.43;103080.31;4977455;28;19918;-83
2022/02/12 04:51:22;;;;;;;;;;;;;;;16.45;47.46;103068.19;4984716;28;19961;-82
2022/02/12 04:53:49;;;;;;;;;;;;;;;16.45;47.47;103060.38;5002505;28;19928;-82
2022/02/12 04:56:15;;;;;;;;;;;;;;;16.44;47.44;103061.22;5002352;28;19921;-82
2022/02/12 04:58:40;;;;;;;;;;;;;;;16.44;47.54;103056.03;5002528;28;19914;-82
2022/02/12 05:01:05;;;;;;;;;;;;;;;16.44;47.41;103058.63;5002236;28;19977;-82
2022/02/12 05:03:30;;;;;;;;;;;;;;;16.44;47.71;103058.63;4984937;28;19964;-81
2022/02/12 05:05:55;;;;;;;;;;;;;;;16.42;47.40;103055.97;4985906;28;19964;-82
2022/02/12 05:08:21;;;;;;;;;;;;;;;16.43;47.61;103047.34;4985389;28;19921;-82
2022/02/12 05:10:46;;;;;;;;;;;;;;;16.40;47.35;103047.25;4985131;28;19913;-82
2022/02/12 05:13:11;;;;;;;;;;;;;;;16.41;47.30;103043.81;5004782;28;19940;-83
2022/02/12 05:15:36;;;;;;;;;;;;;;;16.40;47.56;103047.25;4987567;28;19917;-81
2022/02/12 05:18:02;;;;;;;;;;;;;;;16.40;47.58;103046.38;5004132;28;19925;-83
2022/02/12 05:20:27;;;;;;;;;;;;;;;16.39;47.58;103048.06;4988191;28;19920;-84
2022/02/12 05:22:52;;;;;;;;;;;;;;;16.40;47.50;103043.78;4988335;28;19937;-83
2022/02/12 05:25:17;;;;;;;;;;;;;;;16.39;47.60;103044.59;4997187;28;19921;-83
2022/02/12 05:27:43;;;;;;;;;;;;;;;16.40;47.74;103039.47;4990318;28;19910;-83
2022/02/12 05:30:08;;;;;;;;;;;;;;;16.40;47.50;103038.59;4982019;28;19925;-82
2022/02/12 05:32:33;;;;;;;;;;;;;;;16.39;47.24;103035.06;4986230;28;19926;-83
2022/02/12 05:34:59;;;;;;;;;;;;;;;16.37;47.35;103035.88;4969644;28;19950;-83
2022/02/12 05:37:24;;;;;;;;;;;;;;;16.37;47.07;103031.56;5000161;28;19941;-82
2022/02/12 05:39:49;;;;;;;;;;;;;;;16.38;47.36;103029.84;5007683;28;20377;-82
2022/02/12 05:42:15;;;;;;;;;;;;;;;16.37;47.17;103015.09;4991366;28;19953;-82
2022/02/12 05:44:40;;;;;;;;;;;;;;;16.37;47.26;103021.16;5006187;28;20267;-83
2022/02/12 05:47:05;;;;;;;;;;;;;;;16.37;47.41;103015.97;4989763;28;19949;-82
2022/02/12 05:49:30;;;;;;;;;;;;;;;16.37;47.34;103010.75;4988716;28;19918;-82
2022/02/12 05:51:56;;;;;;;;;;;;;;;16.35;47.22;103004.66;5000718;28;19918;-77
2022/02/12 05:54:21;;;;;;;;;;;;;;;16.36;47.22;102997.75;4998808;28;19914;-77
2022/02/12 05:56:46;;;;;;;;;;;;;;;16.36;47.46;102997.75;4999890;28;19959;-77
2022/02/12 05:59:13;;;;;;;;;;;;;;;16.35;47.14;102998.56;4999493;28;19921;-78
2022/02/12 06:01:39;;;;;;;;;;;;;;;16.34;47.20;102989.91;4999726;28;19925;-77
2022/02/12 06:04:04;;;;;;;;;;;;;;;16.34;47.33;102994.22;5000402;28;19914;-77
2022/02/12 06:06:30;;;;;;;;;;;;;;;16.32;47.20;102991.56;4983387;28;19913;-77
2022/02/12 06:08:55;;;;;;;;;;;;;;;16.32;47.18;102969.91;4982628;28;19918;-77
2022/02/12 06:11:21;;;;;;;;;;;;;;;16.32;47.21;102975.97;4998595;28;19920;-77
2022/02/12 06:13:49;;;;;;;;;;;;;;;16.31;47.27;102971.63;4999103;28;19918;-77
2022/02/12 06:16:15;;;;;;;;;;;;;;;16.31;47.26;102969.03;4997916;28;19936;-77
2022/02/12 06:18:42;;;;;;;;;;;;;;;16.32;47.25;102967.31;4998704;28;20355;-78
2022/02/12 06:21:07;;;;;;;;;;;;;;;16.32;47.09;102968.19;5001247;28;19929;-77
2022/02/12 06:23:34;;;;;;;;;;;;;;;16.32;46.88;102964.72;4982793;28;20285;-77
2022/02/12 06:25:59;;;;;;;;;;;;;;;16.32;47.38;102959.50;5000218;28;20280;-76
2022/02/12 06:28:24;;;;;;;;;;;;;;;16.30;47.32;102961.19;5000129;28;19914;-77
2022/02/12 06:30:49;;;;;;;;;;;;;;;16.30;47.18;102956.84;4983753;28;19921;-77
2022/02/12 06:33:14;;;;;;;;;;;;;;;16.30;47.12;102951.66;4983685;28;20008;-77
2022/02/12 06:35:40;;;;;;;;;;;;;;;16.33;47.58;102948.28;4982522;28;19922;-77
2022/02/12 06:38:07;;;;;;;;;;;;;;;16.36;47.63;102941.44;4999682;28;19917;-78
2022/02/12 06:40:32;;;;;;;;;;;;;;;16.34;47.51;102948.31;4983649;28;20024;-77
2022/02/12 06:42:58;;;;;;;;;;;;;;;16.34;47.44;102940.53;5001726;28;20384;-78
2022/02/12 06:45:23;;;;;;;;;;;;;;;16.34;47.69;102944.84;5000418;28;19984;-79
2022/02/12 06:47:48;;;;;;;;;;;;;;;16.32;47.80;102939.59;4981279;28;19913;-78
2022/02/12 06:50:14;;;;;;;;;;;;;;;16.32;47.80;102936.13;4997788;28;19920;-78
2022/02/12 06:52:40;;;;;;;;;;;;;;;16.32;47.87;102934.41;4999703;28;19913;-78
2022/02/12 06:55:05;;;;;;;;;;;;;;;16.33;47.73;102930.97;4981838;28;19927;-78
2022/02/12 06:57:30;;;;;;;;;;;;;;;16.34;47.59;102932.72;4999752;28;20323;-78
2022/02/12 06:59:56;;;;;;;;;;;;;;;16.34;47.53;102926.66;4998208;28;20373;-79
2022/02/12 07:02:21;;;;;;;;;;;;;;;16.34;47.79;102927.53;4998225;28;19967;-79
2022/02/12 07:04:47;;;;;;;;;;;;;;;16.35;47.60;102923.22;4998262;28;20459;-79
2022/02/12 07:07:13;;;;;;;;;;;;;;;16.36;47.85;102927.59;4987850;28;19925;-79
2022/02/12 07:09:38;;;;;;;;;;;;;;;16.34;47.83;102913.66;4983976;28;20364;-79
2022/02/12 07:12:09;;;;;;;;;;;;;;;16.36;47.83;102919.78;4984073;28;19976;-81
2022/02/12 07:14:34;;;;;;;;;;;;;;;16.38;47.59;102931.13;5001334;28;20008;-79
2022/02/12 07:17:00;;;;;;;;;;;;;;;16.38;47.75;102936.31;5000924;28;19965;-80
2022/02/12 07:19:25;;;;;;;;;;;;;;;16.39;47.65;102930.25;5002468;28;19916;-78
2022/02/12 07:21:50;;;;;;;;;;;;;;;16.39;47.81;102932.88;5001395;28;20386;-78
2022/02/12 07:24:15;;;;;;;;;;;;;;;16.39;47.77;102933.72;4999211;28;19924;-79
2022/02/12 07:26:41;;;;;;;;;;;;;;;16.41;47.55;102934.66;4998593;28;20004;-79
2022/02/12 07:29:06;;;;;;;;;;;;;;;16.41;47.75;102923.41;4981230;28;19914;-79
2022/02/12 07:31:33;;;;;;;;;;;;;;;16.41;47.49;102928.59;4997438;28;19956;-79
2022/02/12 07:34:00;;;;;;;;;;;;;;;16.43;47.69;102916.53;4997039;28;20437;-80
2022/02/12 07:36:25;;;;;;;;;;;;;;;16.44;47.82;102923.50;4998019;28;19955;-80
2022/02/12 07:38:52;;;;;;;;;;;;;;;16.47;47.80;102920.09;4997397;28;20023;-79
2022/02/12 07:41:17;;;;;;;;;;;;;;;16.48;47.61;102916.66;4997592;28;19913;-79
2022/02/12 07:43:45;;;;;;;;;;;;;;;16.47;47.63;102910.59;4999009;28;20338;-79
2022/02/12 07:46:11;;;;;;;;;;;;;;;16.48;47.63;102914.94;5004224;28;19933;-79
2022/02/12 07:48:36;;;;;;;;;;;;;;;16.50;47.53;102907.19;5011406;28;19910;-80
2022/02/12 07:51:03;;;;;;;;;;;;;;;16.51;47.67;102901.16;5011655;28;19910;-81
2022/02/12 07:53:28;;;;;;;;;;;;;;;16.50;47.73;102897.66;5003622;28;19947;-80
2022/02/12 07:55:54;;;;;;;;;;;;;;;16.51;47.63;102904.63;5005755;28;19976;-81
2022/02/12 07:58:22;;;;;;;;;;;;;;;16.52;47.58;102900.31;5014945;28;19894;-81
2022/02/12 08:00:47;;;;;;;;;;;;;;;16.51;47.59;102894.25;4994531;28;19914;-81
2022/02/12 08:03:13;;;;;;;;;;;;;;;16.51;47.56;102907.22;4987295;28;19921;-80
2022/02/12 08:05:39;;;;;;;;;;;;;;;16.52;47.52;102905.50;5002280;28;19910;-80
2022/02/12 08:08:04;;;;;;;;;;;;;;;16.50;47.40;102902.84;4985245;28;19972;-80
2022/02/12 08:13:14;;;;;;;;;;;;;;;16.53;47.53;102899.50;5004895;28;19917;-78
2022/02/12 08:15:40;;;;;;;;;;;;;;;16.56;47.46;102897.84;5001111;28;19913;-78
2022/02/12 08:18:05;;;;;;;;;;;;;;;16.56;47.47;102890.03;5001952;28;19914;-77
2022/02/12 08:20:30;;;;;;;;;;;;;;;16.59;47.45;102895.34;4999119;28;19913;-77
2022/02/12 08:22:55;;;;;;;;;;;;;;;16.62;47.49;102899.72;4998838;28;20001;-78
2022/02/12 08:25:21;;;;;;;;;;;;;;;16.63;47.43;102888.47;5000260;28;19913;-79
2022/02/12 08:27:46;;;;;;;;;;;;;;;16.67;47.53;102892.94;4998741;28;19910;-76
2022/02/12 08:30:12;;;;;;;;;;;;;;;16.72;47.34;102888.72;4998516;28;19968;-77
2022/02/12 08:32:41;;;;;;;;;;;;;;;16.80;47.14;102895.03;4996290;28;19914;-77
2022/02/12 08:35:10;;;;;;;;;;;;;;;16.90;47.29;102890.97;4996443;28;19916;-77
2022/02/12 08:37:38;;;;;;;;;;;;;;;16.94;47.12;102887.63;4996885;28;19939;-77
2022/02/12 08:40:04;;;;;;;;;;;;;;;17.01;46.95;102884.34;4997382;28;20352;-77
2022/02/12 08:42:30;;;;;;;;;;;;;;;17.02;46.86;102880.00;4981342;28;19968;-77
2022/02/12 08:44:55;;;;;;;;;;;;;;;17.02;47.03;102875.66;4980680;28;20304;-77
2022/02/12 08:47:20;;;;;;;;;;;;;;;17.06;47.10;102874.91;4999303;28;20315;-77
2022/02/12 08:49:45;;;;;;;;;;;;;;;17.06;47.06;102856.69;4984275;28;19921;-77
2022/02/12 08:52:11;;;;;;;;;;;;;;;17.08;46.73;102848.94;5001928;28;20271;-78
2022/02/12 09:05:37;;;;;;;;;;;;;;;17.16;46.95;102846.50;5301207;23;19925;-80
2022/02/12 09:08:03;;;;;;;;;;;;;;;17.14;47.06;102835.22;5019381;28;19918;-80
2022/02/12 09:10:28;;;;;;;;;;;;;;;17.12;46.98;102836.91;5019189;28;19921;-80
2022/02/12 09:13:08;;;;;;;;;;;;;;;17.12;46.84;102832.56;5008081;28;19920;-82
2022/02/12 09:15:34;;;;;;;;;;;;;;;17.11;47.01;102832.53;5027974;28;19913;-82
2022/02/12 09:18:00;;;;;;;;;;;;;;;17.12;47.05;102831.69;5019328;28;20362;-82
2022/02/12 09:20:44;;;;;;;;;;;;;;;17.13;46.90;102836.03;5031041;28;19918;-83
2022/02/12 09:23:09;;;;;;;;;;;;;;;17.11;47.05;102829.94;5029941;28;19933;-83
2022/02/12 09:25:38;;;;;;;;;;;;;;;17.11;47.22;102827.31;5023648;28;19909;-82
2022/02/12 09:49:57;;;;;;;;;;;;;;;17.10;47.21;102808.25;4935225;29;19917;-82
2022/02/12 09:55:35;;;;;;;;;;;;;;;17.12;47.11;102808.28;4960121;29;19958;-83
2022/02/12 09:58:05;;;;;;;;;;;;;;;17.15;46.94;102805.75;4946640;29;19957;-82
2022/02/12 10:00:33;;;;;;;;;;;;;;;17.19;46.99;102807.59;4952567;29;19926;-81
2022/02/12 10:02:58;;;;;;;;;;;;;;;17.22;46.99;102808.53;4939419;29;19915;-81
2022/02/12 10:09:12;;;;;;;;;;;;;;;17.46;46.60;102799.50;4954447;28;19966;-84
2022/02/12 10:15:04;;;;;;;;;;;;;;;17.46;46.67;102790.00;4960040;28;19922;-84
2022/02/12 10:18:14;;;;;;;;;;;;;;;17.40;46.67;102786.38;4953768;29;19918;-83
2022/02/12 10:24:07;;;;;;;;;;;;;;;17.32;46.90;102782.72;5018675;28;19909;-86
2022/02/12 10:32:10;;;;;;;;;;;;;;;17.28;46.83;102773.97;5904187;23;19921;-83
2022/02/12 10:34:45;;;;;;;;;;;;;;;17.27;46.95;102778.28;5041019;28;19950;-85
2022/02/12 10:37:12;;;;;;;;;;;;;;;17.27;47.12;102777.41;5039963;28;19917;-83
2022/02/12 10:39:48;;;;;;;;;;;;;;;17.28;47.13;102772.22;5040138;28;19908;-83
2022/02/12 10:42:16;;;;;;;;;;;;;;;17.27;47.20;102777.41;5077831;23;20006;-84
2022/02/12 10:44:44;;;;;;;;;;;;;;;17.27;47.15;102774.81;5018208;28;19918;-84
2022/02/12 10:47:13;;;;;;;;;;;;;;;17.26;47.26;102770.44;5019961;28;19958;-83
2022/02/12 10:49:39;;;;;;;;;;;;;;;17.25;47.21;102769.56;5013330;28;20375;-82
2022/02/12 10:52:04;;;;;;;;;;;;;;;17.26;47.08;102765.25;5019020;28;20016;-83
2022/02/12 10:54:38;;;;;;;;;;;;;;;17.26;47.29;102763.50;5018907;28;19994;-85
2022/02/12 10:57:09;;;;;;;;;;;;;;;17.24;47.34;102760.00;5018534;28;19906;-84
2022/02/12 10:59:37;;;;;;;;;;;;;;;17.24;47.27;102754.78;5019152;28;19941;-83
2022/02/12 11:04:39;;;;;;;;;;;;;;;17.25;47.27;102743.56;5326044;23;19922;-83
2022/02/12 11:07:05;;;;;;;;;;;;;;;17.26;46.89;102731.41;4999194;28;19909;-84
2022/02/12 11:09:31;;;;;;;;;;;;;;;17.28;47.19;102721.91;4997834;28;19917;-83
2022/02/12 11:12:01;;;;;;;;;;;;;;;17.28;46.96;102704.56;4995361;28;19929;-82
2022/02/12 11:14:26;;;;;;;;;;;;;;;17.30;47.01;102701.16;4996836;28;19910;-83
2022/02/12 11:16:53;;;;;;;;;;;;;;;17.31;46.99;102695.97;4994960;28;19941;-82
2022/02/12 11:19:23;;;;;;;;;;;;;;;17.32;46.76;102689.03;4995868;28;19929;-81
2022/02/12 11:21:49;;;;;;;;;;;;;;;17.33;46.90;102688.19;4995975;28;19910;-83
2022/02/12 11:24:32;;;;;;;;;;;;;;;17.33;46.88;102683.84;4997776;28;19944;-83
2022/02/12 11:26:58;;;;;;;;;;;;;;;17.34;46.68;102675.22;4980131;28;19918;-79
2022/02/12 11:29:34;;;;;;;;;;;;;;;17.36;46.74;102675.25;4979092;28;19910;-79
2022/02/12 11:32:16;;;;;;;;;;;;;;;17.37;46.85;102677.88;4979460;28;19960;-78
2022/02/12 11:34:43;;;;;;;;;;;;;;;17.37;46.61;102670.06;4979581;28;20004;-79
2022/02/12 11:37:14;;;;;;;;;;;;;;;17.38;46.63;102669.22;4978931;28;19968;-77
2022/02/12 11:39:39;;;;;;;;;;;;;;;17.39;46.55;102670.97;4979910;28;19910;-78
2022/02/12 11:42:05;;;;;;;;;;;;;;;17.41;46.70;102660.59;4985391;28;20029;-78
2022/02/12 11:44:41;;;;;;;;;;;;;;;17.40;46.76;102656.25;4985953;28;19933;-78
2022/02/12 11:47:07;;;;;;;;;;;;;;;17.40;46.62;102651.91;4982296;28;19977;-78
2022/02/12 11:49:42;;;;;;;;;;;;;;;17.40;46.71;102641.50;4983450;28;19980;-78
2022/02/12 11:52:31;;;;;;;;;;;;;;;17.42;46.90;102641.53;4971934;28;19914;-78
2022/02/12 11:54:57;;;;;;;;;;;;;;;17.41;46.51;102631.97;4985815;28;19917;-78
2022/02/12 11:57:25;;;;;;;;;;;;;;;17.41;46.76;102630.25;4968324;28;20013;-77
2022/02/12 11:59:57;;;;;;;;;;;;;;;17.42;46.60;102621.59;4983152;28;19914;-78
2022/02/12 12:02:41;;;;;;;;;;;;;;;17.43;46.76;102625.06;4982901;28;19914;-77
2022/02/12 12:05:11;;;;;;;;;;;;;;;17.44;46.65;102611.19;4984186;28;19997;-78
2022/02/12 12:07:56;;;;;;;;;;;;;;;17.44;46.79;102600.78;4983937;28;19910;-79
2022/02/12 12:10:21;;;;;;;;;;;;;;;17.44;46.49;102593.88;4984286;28;20275;-78
2022/02/12 12:12:47;;;;;;;;;;;;;;;17.50;46.44;102594.84;4967721;28;19921;-80
2022/02/12 12:15:31;;;;;;;;;;;;;;;17.53;46.27;102579.25;4965692;28;19981;-75
2022/02/12 12:17:58;;;;;;;;;;;;;;;17.52;46.59;102574.91;4982029;28;19957;-79
2022/02/12 12:20:45;;;;;;;;;;;;;;;17.51;46.66;102565.34;4994831;28;19918;-83
2022/02/12 12:23:12;;;;;;;;;;;;;;;17.50;46.92;102568.81;4990592;28;19910;-78
2022/02/12 12:26:06;;;;;;;;;;;;;;;17.52;46.94;102567.13;4993828;28;19910;-82
2022/02/12 12:31:35;;;;;;;;;;;;;;;17.53;47.25;102548.03;4993217;28;19973;-82
2022/02/12 12:34:07;;;;;;;;;;;;;;;17.52;47.53;102526.34;4989592;28;19910;-77
2022/02/12 12:36:51;;;;;;;;;;;;;;;17.55;47.52;102525.50;4996397;28;19918;-82
2022/02/12 12:42:22;;;;;;;;;;;;;;;17.51;47.70;102518.50;4994736;28;19929;-80
2022/02/12 12:45:11;;;;;;;;;;;;;;;17.52;48.09;102515.91;4986175;28;20260;-80
2022/02/12 12:47:58;;;;;;;;;;;;;;;17.55;47.99;102517.69;4986765;28;19914;-82
2022/02/12 12:50:32;;;;;;;;;;;;;;;17.57;48.04;102506.50;4983867;28;19924;-82
2022/02/12 12:53:02;;;;;;;;;;;;;;;17.54;47.96;102502.94;4981172;28;19937;-81
2022/02/12 12:55:27;;;;;;;;;;;;;;;17.52;48.23;102502.03;4982891;28;20347;-79
2022/02/12 13:01:14;;;;;;;;;;;;;;;17.51;48.27;102497.66;4958908;29;19939;-80
2022/02/12 13:03:45;;;;;;;;;;;;;;;17.50;48.32;102499.41;4949088;29;19922;-81
2022/02/12 13:06:22;;;;;;;;;;;;;;;17.51;48.21;102495.06;4958011;28;19902;-85
2022/02/12 13:08:47;;;;;;;;;;;;;;;17.50;48.26;102485.53;4952898;29;19940;-80
2022/02/12 13:11:25;;;;;;;;;;;;;;;17.49;48.15;102479.44;4948458;29;20384;-80
2022/02/12 13:14:08;;;;;;;;;;;;;;;17.48;48.35;102480.28;4972740;29;19895;-81
2022/02/12 13:16:40;;;;;;;;;;;;;;;17.50;48.26;102482.91;4946812;29;19968;-82
2022/02/12 13:19:15;;;;;;;;;;;;;;;17.48;48.30;102478.56;4947319;29;20372;-81
2022/02/12 13:21:47;;;;;;;;;;;;;;;17.47;48.32;102481.13;4964136;29;19910;-81
2022/02/12 13:24:15;;;;;;;;;;;;;;;17.45;48.31;102468.09;4946508;29;19914;-82
2022/02/12 13:26:41;;;;;;;;;;;;;;;17.45;48.30;102468.09;4947226;29;19914;-82
2022/02/12 13:29:18;;;;;;;;;;;;;;;17.45;48.20;102460.28;4946834;29;19910;-82
2022/02/12 13:31:47;;;;;;;;;;;;;;;17.45;48.21;102462.88;4962294;28;19910;-81
2022/02/12 13:34:31;;;;;;;;;;;;;;;17.44;48.09;102452.44;4982866;28;19937;-81
2022/02/12 13:37:15;;;;;;;;;;;;;;;17.44;48.31;102452.44;4994488;28;19918;-83
2022/02/12 13:39:50;;;;;;;;;;;;;;;17.22;52.13;102446.91;4982595;28;19935;-77
2022/02/12 13:42:19;;;;;;;;;;;;;;;16.90;54.43;102448.91;4981855;28;19917;-78
2022/02/12 13:44:45;;;;;;;;;;;;;;;16.95;54.22;102442.06;4982001;28;19917;-77
2022/02/12 13:47:10;;;;;;;;;;;;;;;16.79;55.42;102442.59;4965035;28;19914;-78
2022/02/12 13:49:36;;;;;;;;;;;;;;;16.73;53.35;102435.53;4981574;28;19910;-78